Новости аэропорта "Волгоград"

Arko

Arko

Старожил
А откуда там 100%?
Я смотрю рейс Волгоград-Москва, на затра билеты по 1890 руб, это значить рейс вообще пустой, так как на завтра доступна минимальная цена на билет, при том на оба рейса.
Сегодня нужно было срочно в Ростов. Единственный быстрый и дешевый вариант у S7. Так вот на рейс Волгоград-Москва билетов не было. Смотрел в 16:00 Вылет в 20:00. Как то так. На завтра на 27.01 на 11:20 мест нет.
 
Реклама
Ярик

Ярик

Новичок
Сегодня нужно было срочно в Ростов. Единственный быстрый и дешевый вариант у S7. Так вот на рейс Волгоград-Москва билетов не было. Смотрел в 16:00 Вылет в 20:00. Как то так. На завтра на 27.01 на 11:20 мест нет.
На завтра просто рейса в 11-20 нет
Но вообще хорошо конечно, если самолет летает полный.
Правда если полный он набирается только при таких ценах, хз насколько это вообще выгодно летать по 2-3к за билеты.
 
M

materialist

Новичок
Smartavia открыли продажи с мая в Санкт-Петербург и Симферополь.
 
M

materialist

Новичок
Волгоград — Санкт-Петербург с 1 мая 2021 г.

Волгоград — Симферополь c 6 июня 2021
 
Последнее редактирование:
INTRO

INTRO

Местный
Волгоград — Санкт-Петербург с 1 мая 2021 г.

Волгоград — Симферополь c 6 июня 2021
кстати, зашел на их сайт, там побольше инфо:
Волгоград-Санкт-Петербург- ежедневно
в ночные часы отстоя:
Анапа: чт, сб
Симферополь: вт, вс
Сочи: пн, ср , пт
 
Реклама
Arko

Arko

Старожил
Если я не ошибаюсь, но кажется я сегодня видел в аэропорту на тренировке СУ-57. Два раза заходил и пролёт над полосой. Поправьте если я ошибаюсь.
 
Nikos K

Nikos K

Местный
Что за рейс Уральских авиалиний летит к нам из Бишкека?
 
Arko

Arko

Старожил
Победа 181 ушли назад во Внуково.
Погода не шепчет URWW 091800Z 12009MPS 2600 -SN -FZRA OVC012 M08/M09 Q1011 R06/390035 TEMPO 0400 +SHSNRA BKN002 BKN020CB
 
KD-VOG

KD-VOG

Старожил
Победа 181 ушли назад во Внуково.
Погода не шепчет URWW 091800Z 12009MPS 2600 -SN -FZRA OVC012 M08/M09 Q1011 R06/390035 TEMPO 0400 +SHSNRA BKN002 BKN020CB
Для зимы уход обычное явление в Волгограде, а вот нижний край 40 метров при видимости 2.6 км явление не частое. Обычно если закрывает, то наглухо по всем цифрам.
 
KD-VOG

KD-VOG

Старожил
:D :D Не туда посчитал. Вы правы. Значит К сц. Ничего иного не вижу.
 
Реклама